Schoolfield, Virginia
Current Conditions -  °F | °C
As of 10:53 PM on Thursday 18 Dec 2014 (Local Time) from KDAN Reporting Station
Broken Clouds Broken Clouds  
Wind Chill: 32°   Ceiling: 10000
Heat Index: 32°   Visibility: 10mi
Dew Point: 26°   Wind: 0mph
Humidity: 79%   Direction: NA
Pressure: 30.1"   Gusts: NA
Location:  36.5958°N, 79.5402°W
Report Text: KDAN 190353Z AUTO 00000KT 10SM BKN100 00/M03 A3010 RMK AO2 SLP191 T00001033
Loading
Personal Weather Stations






























Interactive Weather Map New forecast layout! Learn more

10-Day Weather Forecast

Advertisements
Track Severe Weather on mobile